METAR v bližini

 

LJMB - Maribor Edvarda Rusjana, Slovenia
Oddaljenost od postaje: SV 30,9km
Podatki zajeti: 20/01/2021 23:30
Delno oblačno
Delno oblačno
 Veter iz smeri JZ
Veter: JZ 26 km/h
Temperatura: 7°C
Občutek mraza zaradi vetra: 3°C
Rosišče: 3°C
Vlažnost: 76%
Tlak: 1012 hPa
Oblačnost: Delno oblačno
Vidljivost: 10 km
2021/01/20 22:30 LJMB 202230Z AUTO 22014KT 9999 NSC 07/03 Q1012
LJLJ - Ljubljana Brnik, Slovenia
Oddaljenost od postaje: S 103km
Podatki zajeti: 20/01/2021 23:30
Oblačno
Oblačno
 Veter iz smeri ZSZ
Veter: ZSZ 9 km/h
Temperatura: 3°C
Občutek mraza zaradi vetra: 0°C
Rosišče: 2°C
Vlažnost: 93%
Tlak: 1016 hPa
Oblačnost: Oblačno
Vidljivost: 10 km
Podrobnosti o oblakih: Pretežno oblačno 701 m
Oblačno 1219 m
2021/01/20 22:30 LJLJ 202230Z 29005KT 9999 BKN023 OVC040 03/02 Q1016 NOSIG
 
LJPZ - Portorož, Slovenia
Oddaljenost od postaje: SSZ 224km
Podatki zajeti: 20/01/2021 23:30
Megla, Delno oblačno
Megla, Delno oblačno
 Veter iz smeri JV
Veter: JV 2 km/h
Temperatura: 5°C
Rosišče: 4°C
Vlažnost: 93%
Tlak: 1019 hPa
Stanje: Megla
Oblačnost: Delno oblačno
Vidljivost: 1 km
2021/01/20 22:30 LJPZ 202230Z AUTO 13001KT 0650 R15/1700D FG NSC 05/04 Q1019
LJCE - Cerklje, Slovenia
Oddaljenost od postaje: VSV 83,9km
Podatki zajeti: 20/01/2021 23:30
Pretežno oblačno
Pretežno oblačno
 Veter iz smeri calm
Veter: Mirno
Temperatura: 7°C
Rosišče: 3°C
Vlažnost: 76%
Tlak: 1015 hPa
Oblačnost: Pretežno oblačno
Vidljivost: 10 km
Podrobnosti o oblakih: Pretežno oblačno 1372 m
2021/01/20 22:30 LJCE 202230Z AUTO 00000KT 9999 BKN045/// 07/03 Q1015
 
LOWG - Graz, Austria
Oddaljenost od postaje: SSZ 99,6km
Podatki zajeti: 20/01/2021 23:50
Delno oblačno
Delno oblačno
 Veter iz smeri S
Veter: S 7 km/h
Temperatura: -2°C
Občutek mraza zaradi vetra: -6°C
Rosišče: -4°C
Vlažnost: 86%
Tlak: 1009 hPa
Oblačnost: Delno oblačno
Vidljivost: 10 km
2021/01/20 22:50 LOWG 202250Z AUTO 36004KT 9999 NSC M02/M04 Q1009
LOWK - Klagenfurt, Austria
Oddaljenost od postaje: SZ 121km
Podatki zajeti: 20/01/2021 23:50
Rahlo oblačno
Rahlo oblačno
 Veter iz smeri spremenljiv
Veter: spremenljiv 4 km/h
Temperatura: -3°C
Rosišče: -5°C
Vlažnost: 86%
Tlak: 1013 hPa
Oblačnost: Rahlo oblačno
Vidljivost: 10 km
Podrobnosti o oblakih: Rahlo oblačno 1524 m
2021/01/20 22:50 LOWK 202250Z AUTO VRB02KT 9999 FEW050 M03/M05 Q1013
 
LDRI - Rijeka, Croatia
Oddaljenost od postaje: SZ 243km
Podatki zajeti: 21/01/2021 00:00
Rahlo oblačno
Rahlo oblačno
 Veter iz smeri JV
Veter: JV 11 km/h
Temperatura: 10°C
Občutek mraza zaradi vetra: 8°C
Rosišče: 5°C
Vlažnost: 71%
Tlak: 1018 hPa
Oblačnost: Rahlo oblačno
Vidljivost: 10 km
Podrobnosti o oblakih: Rahlo oblačno 914 m
2021/01/20 23:00 LDRI 202300Z 13006KT 9999 FEW030 10/05 Q1018
LIPQ - Ronchi, Italy
Oddaljenost od postaje: VJV 224km
Podatki zajeti: 20/01/2021 23:50
Meglice, Pretežno oblačno
Meglice, Pretežno oblačno
 Veter iz smeri SSZ
Veter: SSZ 6 km/h
Temperatura: 4°C
Rosišče: 4°C
Vlažnost: 100%
Tlak: 1018 hPa
Stanje: Meglice
Oblačnost: Pretežno oblačno
Vidljivost: 4 km
Podrobnosti o oblakih: Pretežno oblačno 1280 m
Pretežno oblačno 2530 m
2021/01/20 22:50 LIPQ 202250Z AUTO 34003KT 4300 BR BKN042/// BKN083/// 04/04 Q1018
 
LDZA - Zagreb, Croatia
Oddaljenost od postaje: JJV 143km
Podatki zajeti: 21/01/2021 00:00
Rahlo dežuje, Pretežno oblačno
Rahlo dežuje, Pretežno oblačno
 Veter iz smeri JZ
Veter: JZ 19 km/h
Temperatura: 9°C
Občutek mraza zaradi vetra: 6°C
Rosišče: 3°C
Vlažnost: 66%
Tlak: 1015 hPa
Stanje: Rahlo dežuje
Oblačnost: Pretežno oblačno
Vidljivost: 10 km
Podrobnosti o oblakih: Pretežno oblačno 1372 m
2021/01/20 23:00 LDZA 202300Z 22010KT 9999 -RA BKN045 09/03 Q1015 NOSIG
LIVT - Trieste, Italy
Oddaljenost od postaje: ZSZ 250km
Podatki zajeti: 20/01/2021 18:55
Ni posodobljen
Meglice, Pretežno oblačno
Meglice, Pretežno oblačno
 Veter iz smeri spremenljiv
Veter: spremenljiv 0 km/h
Temperatura: 7°C
Rosišče: 6°C
Vlažnost: 93%
Tlak: 1020 hPa
Stanje: Meglice
Oblačnost: Pretežno oblačno
Vidljivost: 5 km
Podrobnosti o oblakih: Pretežno oblačno 1219 m
2021/01/20 17:55 LIVT 201755Z /////KT 5000 BR BKN040 07/06 Q1020 RMK OVC OVC060 QUK / QUL / VIS MAR 5 KM VIS MIN 5000
 
LIPA - Aviano, Italy
Oddaljenost od postaje: S 310km
Podatki zajeti: 20/01/2021 19:55
Ni posodobljen
Pretežno oblačno
Pretežno oblačno
 Veter iz smeri SSZ
Veter: SSZ 4 km/h
Temperatura: 3°C
Rosišče: 1°C
Vlažnost: 87%
Tlak: 1019 hPa
Oblačnost: Pretežno oblačno
Vidljivost: 10 km
Podrobnosti o oblakih: Delno oblačno 762 m
Pretežno oblačno 1219 m
2021/01/20 18:55 LIPA 201855Z 33002KT 9999 SCT025 BKN040 03/01 Q1019 RMK OVC VIS MIN 7000 WIND THR05 /////KT WIND THR23 /////KT A3011 WHT
LDPL - Pula, Croatia
Oddaljenost od postaje: SSV 304km
Podatki zajeti: 21/01/2021 00:00
Rahlo oblačno
Rahlo oblačno
 Veter iz smeri VSV
Veter: VSV 2 km/h
Temperatura: 4°C
Rosišče: 3°C
Vlažnost: 93%
Tlak: 1018 hPa
Oblačnost: Rahlo oblačno
Vidljivost: 10 km
Podrobnosti o oblakih: Rahlo oblačno 1676 m
2021/01/20 23:00 LDPL 202300Z 06001KT 9999 FEW055 04/03 Q1018